sensor_id;sensor_type;location;lat;lon;timestamp;temperature;humidity
20349;DHT22;10332;50.208;18.988;2023-06-05T00:00:23;14.30;1.00
20349;DHT22;10332;50.208;18.988;2023-06-05T00:03:10;14.30;1.00
20349;DHT22;10332;50.208;18.988;2023-06-05T00:05:38;14.20;1.00
20349;DHT22;10332;50.208;18.988;2023-06-05T00:08:05;14.20;1.00
20349;DHT22;10332;50.208;18.988;2023-06-05T00:10:33;14.20;1.00
20349;DHT22;10332;50.208;18.988;2023-06-05T00:13:01;14.10;1.00
20349;DHT22;10332;50.208;18.988;2023-06-05T00:15:28;14.10;1.00
20349;DHT22;10332;50.208;18.988;2023-06-05T00:17:58;14.00;1.00
20349;DHT22;10332;50.208;18.988;2023-06-05T00:20:26;14.00;1.00
20349;DHT22;10332;50.208;18.988;2023-06-05T00:22:53;14.00;1.00
20349;DHT22;10332;50.208;18.988;2023-06-05T00:25:39;14.00;1.00
20349;DHT22;10332;50.208;18.988;2023-06-05T00:28:07;14.10;1.00
20349;DHT22;10332;50.208;18.988;2023-06-05T00:30:34;14.10;1.00
20349;DHT22;10332;50.208;18.988;2023-06-05T00:33:03;14.00;1.00
20349;DHT22;10332;50.208;18.988;2023-06-05T00:35:31;14.00;1.00
20349;DHT22;10332;50.208;18.988;2023-06-05T00:37:59;13.90;1.00
20349;DHT22;10332;50.208;18.988;2023-06-05T00:40:27;13.70;1.40
20349;DHT22;10332;50.208;18.988;2023-06-05T00:42:54;13.60;3.60
20349;DHT22;10332;50.208;18.988;2023-06-05T00:45:22;13.50;4.80
20349;DHT22;10332;50.208;18.988;2023-06-05T00:47:49;13.50;6.60
20349;DHT22;10332;50.208;18.988;2023-06-05T00:50:18;13.50;7.50
20349;DHT22;10332;50.208;18.988;2023-06-05T00:52:49;13.40;6.60
20349;DHT22;10332;50.208;18.988;2023-06-05T00:55:18;13.50;5.60
20349;DHT22;10332;50.208;18.988;2023-06-05T00:57:46;13.50;5.80
20349;DHT22;10332;50.208;18.988;2023-06-05T01:00:14;13.60;6.80
20349;DHT22;10332;50.208;18.988;2023-06-05T01:02:42;13.50;7.00
20349;DHT22;10332;50.208;18.988;2023-06-05T01:05:10;13.50;7.70
20349;DHT22;10332;50.208;18.988;2023-06-05T01:07:38;13.40;7.90
20349;DHT22;10332;50.208;18.988;2023-06-05T01:10:07;13.40;9.30
20349;DHT22;10332;50.208;18.988;2023-06-05T01:12:43;13.30;10.70
20349;DHT22;10332;50.208;18.988;2023-06-05T01:15:12;13.20;12.40
20349;DHT22;10332;50.208;18.988;2023-06-05T01:17:43;13.20;12.80
20349;DHT22;10332;50.208;18.988;2023-06-05T01:20:14;13.20;12.80
20349;DHT22;10332;50.208;18.988;2023-06-05T01:22:46;13.20;12.30
20349;DHT22;10332;50.208;18.988;2023-06-05T01:25:16;13.20;13.90
20349;DHT22;10332;50.208;18.988;2023-06-05T01:27:54;13.10;13.60
20349;DHT22;10332;50.208;18.988;2023-06-05T01:33:19;13.10;15.50
20349;DHT22;10332;50.208;18.988;2023-06-05T01:35:52;13.10;16.90
20349;DHT22;10332;50.208;18.988;2023-06-05T01:38:21;13.00;17.80
20349;DHT22;10332;50.208;18.988;2023-06-05T01:40:50;13.00;18.20
20349;DHT22;10332;50.208;18.988;2023-06-05T01:43:18;13.00;18.60
20349;DHT22;10332;50.208;18.988;2023-06-05T01:45:47;13.00;18.70
20349;DHT22;10332;50.208;18.988;2023-06-05T01:48:16;13.00;18.60
20349;DHT22;10332;50.208;18.988;2023-06-05T01:50:43;13.00;18.70
20349;DHT22;10332;50.208;18.988;2023-06-05T01:53:11;13.00;18.70
20349;DHT22;10332;50.208;18.988;2023-06-05T01:55:39;12.90;19.00
20349;DHT22;10332;50.208;18.988;2023-06-05T01:58:08;12.90;19.90
20349;DHT22;10332;50.208;18.988;2023-06-05T02:00:35;12.90;19.80
20349;DHT22;10332;50.208;18.988;2023-06-05T02:03:03;12.80;20.70
20349;DHT22;10332;50.208;18.988;2023-06-05T02:05:31;12.80;21.80
20349;DHT22;10332;50.208;18.988;2023-06-05T02:08:01;12.70;22.30
20349;DHT22;10332;50.208;18.988;2023-06-05T02:10:32;12.70;23.10
20349;DHT22;10332;50.208;18.988;2023-06-05T02:13:00;12.70;23.60
20349;DHT22;10332;50.208;18.988;2023-06-05T02:15:27;12.70;24.10
20349;DHT22;10332;50.208;18.988;2023-06-05T02:17:59;12.60;24.30
20349;DHT22;10332;50.208;18.988;2023-06-05T02:20:27;12.60;24.80
20349;DHT22;10332;50.208;18.988;2023-06-05T02:22:55;12.60;25.20
20349;DHT22;10332;50.208;18.988;2023-06-05T02:25:23;12.60;26.00
20349;DHT22;10332;50.208;18.988;2023-06-05T02:27:54;12.60;25.80
20349;DHT22;10332;50.208;18.988;2023-06-05T02:30:23;12.60;26.60
20349;DHT22;10332;50.208;18.988;2023-06-05T02:32:51;12.60;26.70
20349;DHT22;10332;50.208;18.988;2023-06-05T02:35:28;12.50;27.00
20349;DHT22;10332;50.208;18.988;2023-06-05T02:37:56;12.50;27.60
20349;DHT22;10332;50.208;18.988;2023-06-05T02:40:24;12.40;28.20
20349;DHT22;10332;50.208;18.988;2023-06-05T02:42:52;12.40;29.00
20349;DHT22;10332;50.208;18.988;2023-06-05T02:45:20;12.40;28.80
20349;DHT22;10332;50.208;18.988;2023-06-05T02:47:50;12.40;29.30
20349;DHT22;10332;50.208;18.988;2023-06-05T02:50:18;12.40;28.70
20349;DHT22;10332;50.208;18.988;2023-06-05T02:52:46;12.50;29.00
20349;DHT22;10332;50.208;18.988;2023-06-05T02:55:13;12.50;28.80
20349;DHT22;10332;50.208;18.988;2023-06-05T02:57:40;12.50;28.60
20349;DHT22;10332;50.208;18.988;2023-06-05T03:00:10;12.50;28.70
20349;DHT22;10332;50.208;18.988;2023-06-05T03:02:45;12.50;27.70
20349;DHT22;10332;50.208;18.988;2023-06-05T03:05:16;12.50;27.90
20349;DHT22;10332;50.208;18.988;2023-06-05T03:07:53;12.60;27.50
20349;DHT22;10332;50.208;18.988;2023-06-05T03:10:21;12.60;27.20
20349;DHT22;10332;50.208;18.988;2023-06-05T03:12:49;12.70;27.50
20349;DHT22;10332;50.208;18.988;2023-06-05T03:15:16;12.60;27.60
20349;DHT22;10332;50.208;18.988;2023-06-05T03:17:45;12.60;28.00
20349;DHT22;10332;50.208;18.988;2023-06-05T03:20:13;12.70;28.50
20349;DHT22;10332;50.208;18.988;2023-06-05T03:22:40;12.70;28.10
20349;DHT22;10332;50.208;18.988;2023-06-05T03:25:08;12.70;28.00
20349;DHT22;10332;50.208;18.988;2023-06-05T03:27:37;12.70;27.80
20349;DHT22;10332;50.208;18.988;2023-06-05T03:30:04;12.80;28.00
20349;DHT22;10332;50.208;18.988;2023-06-05T03:32:33;12.80;28.40
20349;DHT22;10332;50.208;18.988;2023-06-05T03:35:00;12.80;28.40
20349;DHT22;10332;50.208;18.988;2023-06-05T03:37:28;12.90;27.80
20349;DHT22;10332;50.208;18.988;2023-06-05T03:39:55;12.90;27.60
20349;DHT22;10332;50.208;18.988;2023-06-05T03:42:23;12.90;27.60
20349;DHT22;10332;50.208;18.988;2023-06-05T03:44:50;13.00;29.60
20349;DHT22;10332;50.208;18.988;2023-06-05T03:47:18;13.00;29.80
20349;DHT22;10332;50.208;18.988;2023-06-05T03:49:48;13.00;29.10
20349;DHT22;10332;50.208;18.988;2023-06-05T03:52:17;13.00;30.50
20349;DHT22;10332;50.208;18.988;2023-06-05T03:54:50;13.00;29.90
20349;DHT22;10332;50.208;18.988;2023-06-05T03:57:20;13.10;30.60
20349;DHT22;10332;50.208;18.988;2023-06-05T03:59:49;13.10;30.30
20349;DHT22;10332;50.208;18.988;2023-06-05T04:02:18;13.20;32.10
20349;DHT22;10332;50.208;18.988;2023-06-05T04:04:45;13.30;32.90
20349;DHT22;10332;50.208;18.988;2023-06-05T04:07:13;13.30;33.20
20349;DHT22;10332;50.208;18.988;2023-06-05T04:09:40;13.20;33.50
20349;DHT22;10332;50.208;18.988;2023-06-05T04:12:08;13.20;32.90
20349;DHT22;10332;50.208;18.988;2023-06-05T04:14:41;13.30;32.70
20349;DHT22;10332;50.208;18.988;2023-06-05T04:17:09;13.30;32.00
20349;DHT22;10332;50.208;18.988;2023-06-05T04:19:37;13.30;32.00
20349;DHT22;10332;50.208;18.988;2023-06-05T04:22:05;13.40;31.80
20349;DHT22;10332;50.208;18.988;2023-06-05T04:24:33;13.50;32.40
20349;DHT22;10332;50.208;18.988;2023-06-05T04:27:00;13.50;32.40
20349;DHT22;10332;50.208;18.988;2023-06-05T04:29:29;13.60;32.00
20349;DHT22;10332;50.208;18.988;2023-06-05T04:31:59;13.60;32.20
20349;DHT22;10332;50.208;18.988;2023-06-05T04:34:27;13.70;31.40
20349;DHT22;10332;50.208;18.988;2023-06-05T04:36:54;13.70;31.80
20349;DHT22;10332;50.208;18.988;2023-06-05T04:39:23;13.70;30.40
20349;DHT22;10332;50.208;18.988;2023-06-05T04:41:51;13.80;30.40
20349;DHT22;10332;50.208;18.988;2023-06-05T04:44:39;13.80;30.30
20349;DHT22;10332;50.208;18.988;2023-06-05T04:47:06;13.80;30.20
20349;DHT22;10332;50.208;18.988;2023-06-05T04:49:35;13.80;30.80
20349;DHT22;10332;50.208;18.988;2023-06-05T04:52:03;13.90;30.60
20349;DHT22;10332;50.208;18.988;2023-06-05T04:54:32;13.90;30.10
20349;DHT22;10332;50.208;18.988;2023-06-05T04:56:59;13.90;30.00
20349;DHT22;10332;50.208;18.988;2023-06-05T04:59:28;13.90;29.70
20349;DHT22;10332;50.208;18.988;2023-06-05T05:01:59;14.00;29.50
20349;DHT22;10332;50.208;18.988;2023-06-05T05:04:27;14.10;29.30
20349;DHT22;10332;50.208;18.988;2023-06-05T05:06:54;14.10;29.40
20349;DHT22;10332;50.208;18.988;2023-06-05T05:09:22;14.20;29.50
20349;DHT22;10332;50.208;18.988;2023-06-05T05:11:49;14.30;29.70
20349;DHT22;10332;50.208;18.988;2023-06-05T05:14:17;14.30;29.80
20349;DHT22;10332;50.208;18.988;2023-06-05T05:16:44;14.40;29.60
20349;DHT22;10332;50.208;18.988;2023-06-05T05:19:12;14.50;30.30
20349;DHT22;10332;50.208;18.988;2023-06-05T05:21:40;14.50;29.80
20349;DHT22;10332;50.208;18.988;2023-06-05T05:24:07;14.60;28.70
20349;DHT22;10332;50.208;18.988;2023-06-05T05:26:35;14.60;28.30
20349;DHT22;10332;50.208;18.988;2023-06-05T05:29:03;14.70;29.00
20349;DHT22;10332;50.208;18.988;2023-06-05T05:31:30;14.70;29.10
20349;DHT22;10332;50.208;18.988;2023-06-05T05:33:59;14.80;29.10
20349;DHT22;10332;50.208;18.988;2023-06-05T05:36:26;14.80;28.70
20349;DHT22;10332;50.208;18.988;2023-06-05T05:38:54;14.90;28.90
20349;DHT22;10332;50.208;18.988;2023-06-05T05:41:22;15.00;27.80
20349;DHT22;10332;50.208;18.988;2023-06-05T05:43:50;15.10;28.00
20349;DHT22;10332;50.208;18.988;2023-06-05T05:46:17;15.20;28.20
20349;DHT22;10332;50.208;18.988;2023-06-05T05:48:45;15.20;28.00
20349;DHT22;10332;50.208;18.988;2023-06-05T05:51:12;15.30;28.30
20349;DHT22;10332;50.208;18.988;2023-06-05T05:53:40;15.40;27.70
20349;DHT22;10332;50.208;18.988;2023-06-05T05:56:07;15.40;26.90
20349;DHT22;10332;50.208;18.988;2023-06-05T05:58:35;15.50;27.10
20349;DHT22;10332;50.208;18.988;2023-06-05T06:01:02;15.50;27.90
20349;DHT22;10332;50.208;18.988;2023-06-05T06:03:30;15.70;27.50
20349;DHT22;10332;50.208;18.988;2023-06-05T06:05:59;15.70;27.10
20349;DHT22;10332;50.208;18.988;2023-06-05T06:08:29;15.80;26.90
20349;DHT22;10332;50.208;18.988;2023-06-05T06:10:57;15.90;26.70
20349;DHT22;10332;50.208;18.988;2023-06-05T06:13:27;16.00;26.20
20349;DHT22;10332;50.208;18.988;2023-06-05T06:15:54;16.10;26.00
20349;DHT22;10332;50.208;18.988;2023-06-05T06:18:22;16.20;25.80
20349;DHT22;10332;50.208;18.988;2023-06-05T06:20:49;16.30;25.30
20349;DHT22;10332;50.208;18.988;2023-06-05T06:23:17;16.40;24.70
20349;DHT22;10332;50.208;18.988;2023-06-05T06:25:45;16.60;23.60
20349;DHT22;10332;50.208;18.988;2023-06-05T06:28:13;16.70;22.60
20349;DHT22;10332;50.208;18.988;2023-06-05T06:30:40;16.80;22.20
20349;DHT22;10332;50.208;18.988;2023-06-05T06:33:09;16.90;22.30
20349;DHT22;10332;50.208;18.988;2023-06-05T06:35:36;17.00;19.10
20349;DHT22;10332;50.208;18.988;2023-06-05T06:38:04;17.10;18.10
20349;DHT22;10332;50.208;18.988;2023-06-05T06:40:32;17.20;18.40
20349;DHT22;10332;50.208;18.988;2023-06-05T06:42:59;17.30;16.00
20349;DHT22;10332;50.208;18.988;2023-06-05T06:45:27;17.40;10.60
20349;DHT22;10332;50.208;18.988;2023-06-05T06:47:55;17.50;9.20
20349;DHT22;10332;50.208;18.988;2023-06-05T06:50:34;17.60;8.50
20349;DHT22;10332;50.208;18.988;2023-06-05T06:53:02;17.80;8.30
20349;DHT22;10332;50.208;18.988;2023-06-05T06:55:30;17.90;6.40
20349;DHT22;10332;50.208;18.988;2023-06-05T06:57:58;18.00;6.60
20349;DHT22;10332;50.208;18.988;2023-06-05T07:00:26;18.10;6.00
20349;DHT22;10332;50.208;18.988;2023-06-05T07:02:53;18.20;4.00
20349;DHT22;10332;50.208;18.988;2023-06-05T07:05:21;18.40;2.50
20349;DHT22;10332;50.208;18.988;2023-06-05T07:07:50;18.50;2.40
20349;DHT22;10332;50.208;18.988;2023-06-05T07:10:17;18.60;2.00
20349;DHT22;10332;50.208;18.988;2023-06-05T07:12:45;18.70;1.00
20349;DHT22;10332;50.208;18.988;2023-06-05T07:15:12;18.90;1.00
20349;DHT22;10332;50.208;18.988;2023-06-05T07:17:40;19.00;1.00
20349;DHT22;10332;50.208;18.988;2023-06-05T07:20:08;19.10;1.00
20349;DHT22;10332;50.208;18.988;2023-06-05T07:22:36;19.20;1.00
20349;DHT22;10332;50.208;18.988;2023-06-05T07:25:04;19.20;1.00
20349;DHT22;10332;50.208;18.988;2023-06-05T07:27:32;19.30;1.00
20349;DHT22;10332;50.208;18.988;2023-06-05T07:29:59;19.30;1.00
20349;DHT22;10332;50.208;18.988;2023-06-05T07:32:27;19.40;1.00
20349;DHT22;10332;50.208;18.988;2023-06-05T07:34:54;19.50;1.00
20349;DHT22;10332;50.208;18.988;2023-06-05T07:37:22;19.60;1.00
20349;DHT22;10332;50.208;18.988;2023-06-05T07:39:49;19.70;1.00
20349;DHT22;10332;50.208;18.988;2023-06-05T07:42:18;19.80;1.00
20349;DHT22;10332;50.208;18.988;2023-06-05T07:44:46;19.90;1.00
20349;DHT22;10332;50.208;18.988;2023-06-05T07:47:13;20.00;1.00
20349;DHT22;10332;50.208;18.988;2023-06-05T07:49:40;20.10;1.00
20349;DHT22;10332;50.208;18.988;2023-06-05T07:52:08;20.20;1.00
20349;DHT22;10332;50.208;18.988;2023-06-05T07:54:37;20.30;1.00
20349;DHT22;10332;50.208;18.988;2023-06-05T07:57:05;20.30;1.00
20349;DHT22;10332;50.208;18.988;2023-06-05T07:59:35;20.50;1.00
20349;DHT22;10332;50.208;18.988;2023-06-05T08:02:02;20.50;1.00
20349;DHT22;10332;50.208;18.988;2023-06-05T08:04:32;20.60;1.00
20349;DHT22;10332;50.208;18.988;2023-06-05T08:07:00;20.70;1.00
20349;DHT22;10332;50.208;18.988;2023-06-05T08:09:27;20.80;1.00
20349;DHT22;10332;50.208;18.988;2023-06-05T08:11:55;21.00;1.00
20349;DHT22;10332;50.208;18.988;2023-06-05T08:14:22;21.10;1.00
20349;DHT22;10332;50.208;18.988;2023-06-05T08:16:50;21.20;1.00
20349;DHT22;10332;50.208;18.988;2023-06-05T08:19:18;21.30;1.00
20349;DHT22;10332;50.208;18.988;2023-06-05T08:21:46;21.30;1.00
20349;DHT22;10332;50.208;18.988;2023-06-05T08:24:13;21.40;1.00
20349;DHT22;10332;50.208;18.988;2023-06-05T08:26:41;21.50;1.00
20349;DHT22;10332;50.208;18.988;2023-06-05T08:29:08;21.60;1.00
20349;DHT22;10332;50.208;18.988;2023-06-05T08:31:36;21.70;1.00
20349;DHT22;10332;50.208;18.988;2023-06-05T08:34:04;21.80;1.00
20349;DHT22;10332;50.208;18.988;2023-06-05T08:36:32;21.80;1.00
20349;DHT22;10332;50.208;18.988;2023-06-05T08:39:02;21.90;1.00
20349;DHT22;10332;50.208;18.988;2023-06-05T08:41:31;22.00;1.00
20349;DHT22;10332;50.208;18.988;2023-06-05T08:44:00;22.10;1.00
20349;DHT22;10332;50.208;18.988;2023-06-05T08:46:29;22.10;1.00
20349;DHT22;10332;50.208;18.988;2023-06-05T08:49:07;22.10;1.00
20349;DHT22;10332;50.208;18.988;2023-06-05T08:51:39;22.30;1.00
20349;DHT22;10332;50.208;18.988;2023-06-05T08:54:10;22.40;1.00
20349;DHT22;10332;50.208;18.988;2023-06-05T08:56:42;22.50;1.00
20349;DHT22;10332;50.208;18.988;2023-06-05T08:59:10;22.80;1.00
20349;DHT22;10332;50.208;18.988;2023-06-05T09:01:42;23.00;1.00
20349;DHT22;10332;50.208;18.988;2023-06-05T09:04:11;23.10;1.00
20349;DHT22;10332;50.208;18.988;2023-06-05T09:06:39;23.20;1.00
20349;DHT22;10332;50.208;18.988;2023-06-05T09:09:08;23.30;1.00
20349;DHT22;10332;50.208;18.988;2023-06-05T09:11:37;23.40;1.00
20349;DHT22;10332;50.208;18.988;2023-06-05T09:14:06;23.50;1.00
20349;DHT22;10332;50.208;18.988;2023-06-05T09:16:38;23.70;1.00
20349;DHT22;10332;50.208;18.988;2023-06-05T09:19:10;23.80;1.00
20349;DHT22;10332;50.208;18.988;2023-06-05T09:21:39;24.00;1.00
20349;DHT22;10332;50.208;18.988;2023-06-05T09:24:12;24.00;1.00
20349;DHT22;10332;50.208;18.988;2023-06-05T09:31:56;24.60;1.00
20349;DHT22;10332;50.208;18.988;2023-06-05T09:37:06;24.80;1.00
20349;DHT22;10332;50.208;18.988;2023-06-05T09:39:37;25.10;1.00
20349;DHT22;10332;50.208;18.988;2023-06-05T09:42:06;25.20;1.00
20349;DHT22;10332;50.208;18.988;2023-06-05T09:44:34;25.40;1.00
20349;DHT22;10332;50.208;18.988;2023-06-05T09:47:08;25.50;1.00
20349;DHT22;10332;50.208;18.988;2023-06-05T09:52:10;25.80;1.00
20349;DHT22;10332;50.208;18.988;2023-06-05T09:54:41;26.00;1.00
20349;DHT22;10332;50.208;18.988;2023-06-05T09:57:13;25.90;1.00
20349;DHT22;10332;50.208;18.988;2023-06-05T09:59:52;26.00;1.00
20349;DHT22;10332;50.208;18.988;2023-06-05T10:02:24;25.80;1.00
20349;DHT22;10332;50.208;18.988;2023-06-05T10:05:03;25.50;1.00
20349;DHT22;10332;50.208;18.988;2023-06-05T10:07:36;25.60;1.00
20349;DHT22;10332;50.208;18.988;2023-06-05T10:10:08;25.70;1.00
20349;DHT22;10332;50.208;18.988;2023-06-05T10:12:37;25.70;1.00
20349;DHT22;10332;50.208;18.988;2023-06-05T10:15:06;25.80;1.00
20349;DHT22;10332;50.208;18.988;2023-06-05T10:17:37;25.80;1.00
20349;DHT22;10332;50.208;18.988;2023-06-05T10:20:07;25.90;1.00
20349;DHT22;10332;50.208;18.988;2023-06-05T10:22:36;26.10;1.00
20349;DHT22;10332;50.208;18.988;2023-06-05T10:25:09;26.40;1.00
20349;DHT22;10332;50.208;18.988;2023-06-05T10:31:10;26.60;1.00
20349;DHT22;10332;50.208;18.988;2023-06-05T10:34:28;26.60;1.00
20349;DHT22;10332;50.208;18.988;2023-06-05T10:40:25;26.90;1.00
20349;DHT22;10332;50.208;18.988;2023-06-05T10:42:53;26.90;1.00
20349;DHT22;10332;50.208;18.988;2023-06-05T10:45:31;26.80;1.00
20349;DHT22;10332;50.208;18.988;2023-06-05T10:48:01;26.70;1.00
20349;DHT22;10332;50.208;18.988;2023-06-05T10:50:29;26.70;1.00
20349;DHT22;10332;50.208;18.988;2023-06-05T10:52:58;26.90;1.00
20349;DHT22;10332;50.208;18.988;2023-06-05T10:55:27;26.90;1.00
20349;DHT22;10332;50.208;18.988;2023-06-05T10:58:12;27.00;1.00
20349;DHT22;10332;50.208;18.988;2023-06-05T11:01:17;27.10;1.00
20349;DHT22;10332;50.208;18.988;2023-06-05T11:03:54;27.20;1.00
20349;DHT22;10332;50.208;18.988;2023-06-05T11:06:27;27.40;1.00
20349;DHT22;10332;50.208;18.988;2023-06-05T11:09:10;27.30;1.00
20349;DHT22;10332;50.208;18.988;2023-06-05T11:11:58;27.50;1.00
20349;DHT22;10332;50.208;18.988;2023-06-05T11:14:58;27.60;1.00
20349;DHT22;10332;50.208;18.988;2023-06-05T11:20:06;27.60;1.00
20349;DHT22;10332;50.208;18.988;2023-06-05T11:27:59;27.30;1.00
20349;DHT22;10332;50.208;18.988;2023-06-05T11:30:30;27.30;1.00
20349;DHT22;10332;50.208;18.988;2023-06-05T11:33:16;27.30;1.00
20349;DHT22;10332;50.208;18.988;2023-06-05T11:35:46;27.30;1.00
20349;DHT22;10332;50.208;18.988;2023-06-05T11:38:24;27.20;1.00
20349;DHT22;10332;50.208;18.988;2023-06-05T11:40:53;27.10;1.00
20349;DHT22;10332;50.208;18.988;2023-06-05T11:43:22;26.90;1.00
20349;DHT22;10332;50.208;18.988;2023-06-05T11:45:57;26.90;1.00
20349;DHT22;10332;50.208;18.988;2023-06-05T11:48:26;26.90;1.00
20349;DHT22;10332;50.208;18.988;2023-06-05T11:50:58;26.90;1.00
20349;DHT22;10332;50.208;18.988;2023-06-05T11:53:31;27.00;1.00
20349;DHT22;10332;50.208;18.988;2023-06-05T11:55:59;27.20;1.00
20349;DHT22;10332;50.208;18.988;2023-06-05T11:58:33;27.30;1.00
20349;DHT22;10332;50.208;18.988;2023-06-05T12:01:15;27.40;1.00
20349;DHT22;10332;50.208;18.988;2023-06-05T12:04:02;27.50;1.00
20349;DHT22;10332;50.208;18.988;2023-06-05T12:06:31;27.50;1.00
20349;DHT22;10332;50.208;18.988;2023-06-05T12:09:12;27.50;1.00
20349;DHT22;10332;50.208;18.988;2023-06-05T12:11:45;27.60;1.00
20349;DHT22;10332;50.208;18.988;2023-06-05T12:14:30;27.60;1.00
20349;DHT22;10332;50.208;18.988;2023-06-05T12:16:59;27.50;1.00
20349;DHT22;10332;50.208;18.988;2023-06-05T12:19:30;27.50;1.00
20349;DHT22;10332;50.208;18.988;2023-06-05T12:22:07;27.50;1.00
20349;DHT22;10332;50.208;18.988;2023-06-05T12:24:36;27.60;1.00
20349;DHT22;10332;50.208;18.988;2023-06-05T12:27:04;27.60;1.00
20349;DHT22;10332;50.208;18.988;2023-06-05T12:29:35;27.60;1.00
20349;DHT22;10332;50.208;18.988;2023-06-05T12:32:22;27.60;1.00
20349;DHT22;10332;50.208;18.988;2023-06-05T12:34:52;27.60;1.00
20349;DHT22;10332;50.208;18.988;2023-06-05T12:37:34;27.60;1.00
20349;DHT22;10332;50.208;18.988;2023-06-05T12:40:06;27.70;1.00
20349;DHT22;10332;50.208;18.988;2023-06-05T12:42:39;27.90;1.00
20349;DHT22;10332;50.208;18.988;2023-06-05T12:45:11;28.20;1.00
20349;DHT22;10332;50.208;18.988;2023-06-05T12:47:40;28.30;1.00
20349;DHT22;10332;50.208;18.988;2023-06-05T12:50:11;28.40;1.00
20349;DHT22;10332;50.208;18.988;2023-06-05T12:52:40;28.40;1.00
20349;DHT22;10332;50.208;18.988;2023-06-05T12:55:08;28.30;1.00
20349;DHT22;10332;50.208;18.988;2023-06-05T12:58:09;28.20;1.00
20349;DHT22;10332;50.208;18.988;2023-06-05T13:00:37;28.20;1.00
20349;DHT22;10332;50.208;18.988;2023-06-05T13:03:05;28.20;1.00
20349;DHT22;10332;50.208;18.988;2023-06-05T13:05:33;28.30;1.00
20349;DHT22;10332;50.208;18.988;2023-06-05T13:08:01;28.30;1.00
20349;DHT22;10332;50.208;18.988;2023-06-05T13:10:29;28.30;1.00
20349;DHT22;10332;50.208;18.988;2023-06-05T13:12:57;28.40;1.00
20349;DHT22;10332;50.208;18.988;2023-06-05T13:15:24;28.40;1.00
20349;DHT22;10332;50.208;18.988;2023-06-05T13:17:52;28.40;1.00
20349;DHT22;10332;50.208;18.988;2023-06-05T13:20:20;28.40;1.00
20349;DHT22;10332;50.208;18.988;2023-06-05T13:22:47;28.40;1.00
20349;DHT22;10332;50.208;18.988;2023-06-05T13:25:15;28.50;1.00
20349;DHT22;10332;50.208;18.988;2023-06-05T13:27:42;28.40;1.00
20349;DHT22;10332;50.208;18.988;2023-06-05T13:30:10;28.20;1.00
20349;DHT22;10332;50.208;18.988;2023-06-05T13:32:37;28.10;1.00
20349;DHT22;10332;50.208;18.988;2023-06-05T13:35:06;28.10;1.00
20349;DHT22;10332;50.208;18.988;2023-06-05T13:37:36;28.00;1.00
20349;DHT22;10332;50.208;18.988;2023-06-05T13:40:05;28.00;1.00
20349;DHT22;10332;50.208;18.988;2023-06-05T13:42:33;28.20;1.00
20349;DHT22;10332;50.208;18.988;2023-06-05T13:45:01;28.30;1.00
20349;DHT22;10332;50.208;18.988;2023-06-05T13:47:29;28.40;1.00
20349;DHT22;10332;50.208;18.988;2023-06-05T13:49:56;28.40;1.00
20349;DHT22;10332;50.208;18.988;2023-06-05T13:52:24;28.40;1.00
20349;DHT22;10332;50.208;18.988;2023-06-05T13:54:52;28.50;1.00
20349;DHT22;10332;50.208;18.988;2023-06-05T13:57:19;28.60;1.00
20349;DHT22;10332;50.208;18.988;2023-06-05T13:59:47;28.70;1.00
20349;DHT22;10332;50.208;18.988;2023-06-05T14:02:14;28.70;1.00
20349;DHT22;10332;50.208;18.988;2023-06-05T14:04:42;28.80;1.00
20349;DHT22;10332;50.208;18.988;2023-06-05T14:07:10;28.70;1.00
20349;DHT22;10332;50.208;18.988;2023-06-05T14:09:37;28.60;1.00
20349;DHT22;10332;50.208;18.988;2023-06-05T14:12:05;28.50;1.00
20349;DHT22;10332;50.208;18.988;2023-06-05T14:14:33;28.30;1.00
20349;DHT22;10332;50.208;18.988;2023-06-05T14:17:00;28.30;1.00
20349;DHT22;10332;50.208;18.988;2023-06-05T14:19:28;28.20;1.00
20349;DHT22;10332;50.208;18.988;2023-06-05T14:21:55;28.20;1.00
20349;DHT22;10332;50.208;18.988;2023-06-05T14:24:23;28.10;1.00
20349;DHT22;10332;50.208;18.988;2023-06-05T14:26:53;28.00;1.00
20349;DHT22;10332;50.208;18.988;2023-06-05T14:29:22;27.90;1.00
20349;DHT22;10332;50.208;18.988;2023-06-05T14:31:49;27.90;1.00
20349;DHT22;10332;50.208;18.988;2023-06-05T14:34:17;27.90;1.00
20349;DHT22;10332;50.208;18.988;2023-06-05T14:36:46;27.90;1.00
20349;DHT22;10332;50.208;18.988;2023-06-05T14:39:18;27.80;1.00
20349;DHT22;10332;50.208;18.988;2023-06-05T14:41:47;27.80;1.00
20349;DHT22;10332;50.208;18.988;2023-06-05T14:44:16;27.80;1.00
20349;DHT22;10332;50.208;18.988;2023-06-05T14:46:49;27.80;1.00
20349;DHT22;10332;50.208;18.988;2023-06-05T14:49:17;27.80;1.00
20349;DHT22;10332;50.208;18.988;2023-06-05T14:51:45;27.70;1.00
20349;DHT22;10332;50.208;18.988;2023-06-05T14:54:28;27.60;1.00
20349;DHT22;10332;50.208;18.988;2023-06-05T14:56:55;27.40;1.00
20349;DHT22;10332;50.208;18.988;2023-06-05T14:59:23;27.30;1.00
20349;DHT22;10332;50.208;18.988;2023-06-05T15:01:53;27.30;1.00
20349;DHT22;10332;50.208;18.988;2023-06-05T15:04:21;27.20;1.00
20349;DHT22;10332;50.208;18.988;2023-06-05T15:06:49;27.20;1.00
20349;DHT22;10332;50.208;18.988;2023-06-05T15:09:19;27.20;1.00
20349;DHT22;10332;50.208;18.988;2023-06-05T15:11:48;27.00;1.00
20349;DHT22;10332;50.208;18.988;2023-06-05T15:14:17;27.00;1.00
20349;DHT22;10332;50.208;18.988;2023-06-05T15:16:45;26.90;1.00
20349;DHT22;10332;50.208;18.988;2023-06-05T15:19:13;26.90;1.00
20349;DHT22;10332;50.208;18.988;2023-06-05T15:21:42;26.90;1.00
20349;DHT22;10332;50.208;18.988;2023-06-05T15:24:10;26.90;1.00
20349;DHT22;10332;50.208;18.988;2023-06-05T15:26:37;26.80;1.00
20349;DHT22;10332;50.208;18.988;2023-06-05T15:29:05;26.80;1.00
20349;DHT22;10332;50.208;18.988;2023-06-05T15:31:32;26.60;1.00
20349;DHT22;10332;50.208;18.988;2023-06-05T15:34:00;26.60;1.00
20349;DHT22;10332;50.208;18.988;2023-06-05T15:36:28;26.50;1.00
20349;DHT22;10332;50.208;18.988;2023-06-05T15:38:55;26.50;1.00
20349;DHT22;10332;50.208;18.988;2023-06-05T15:41:23;26.40;1.00
20349;DHT22;10332;50.208;18.988;2023-06-05T15:43:51;26.30;1.00
20349;DHT22;10332;50.208;18.988;2023-06-05T15:46:18;26.30;1.00
20349;DHT22;10332;50.208;18.988;2023-06-05T15:48:46;26.20;1.00
20349;DHT22;10332;50.208;18.988;2023-06-05T15:51:13;26.20;1.00
20349;DHT22;10332;50.208;18.988;2023-06-05T15:53:41;26.20;1.00
20349;DHT22;10332;50.208;18.988;2023-06-05T15:56:24;26.20;1.00
20349;DHT22;10332;50.208;18.988;2023-06-05T15:58:53;26.30;1.00
20349;DHT22;10332;50.208;18.988;2023-06-05T16:01:20;26.30;1.00
20349;DHT22;10332;50.208;18.988;2023-06-05T16:03:48;26.40;1.00
20349;DHT22;10332;50.208;18.988;2023-06-05T16:06:17;26.40;1.00
20349;DHT22;10332;50.208;18.988;2023-06-05T16:08:45;26.20;1.00